createdAt,value
2023-01-31T00:01:12.178Z,101002.00
2023-01-31T00:06:18.877Z,100989.81
2023-01-31T00:11:23.455Z,101005.22
2023-01-31T00:16:27.169Z,100997.38
2023-01-31T00:21:32.393Z,101013.13
2023-01-31T00:26:36.567Z,101014.25
2023-01-31T00:31:40.117Z,100997.94
2023-01-31T00:36:44.419Z,101003.38
2023-01-31T00:41:47.155Z,100990.13
2023-01-31T00:46:50.060Z,100998.03
2023-01-31T00:51:54.276Z,101003.38
2023-01-31T00:56:57.017Z,101008.38
2023-01-31T01:01:59.962Z,101002.66
2023-01-31T01:07:04.306Z,101015.50
2023-01-31T01:12:09.330Z,101016.66
2023-01-31T01:17:12.046Z,101011.44
2023-01-31T01:22:16.320Z,101016.84
2023-01-31T01:27:19.068Z,101032.41
2023-01-31T01:32:22.076Z,101010.00
2023-01-31T01:37:26.344Z,101018.59
2023-01-31T01:42:34.095Z,101027.78
2023-01-31T01:47:41.177Z,101032.31
2023-01-31T01:52:48.682Z,101032.63
2023-01-31T01:57:58.130Z,101033.19
2023-01-31T02:03:06.294Z,101043.53
2023-01-31T02:08:11.237Z,101031.81
2023-01-31T02:13:14.701Z,101048.59
2023-01-31T02:18:21.419Z,101062.03
2023-01-31T02:23:52.397Z,101067.69
2023-01-31T02:29:27.961Z,101062.53
2023-01-31T02:34:37.331Z,101054.22
2023-01-31T02:39:50.735Z,101072.41
2023-01-31T02:45:00.234Z,101067.91
2023-01-31T02:50:13.854Z,101070.84
2023-01-31T02:55:42.006Z,101086.81
2023-01-31T03:00:47.250Z,101071.69
2023-01-31T03:06:33.556Z,101086.19
2023-01-31T03:11:48.021Z,101077.28
2023-01-31T03:17:13.661Z,101068.13
2023-01-31T03:29:07.634Z,101056.31
2023-01-31T03:34:16.214Z,101043.91
2023-01-31T03:39:33.750Z,101034.88
2023-01-31T03:44:45.058Z,101029.81
2023-01-31T03:49:49.878Z,101025.41
2023-01-31T03:54:58.719Z,101020.03
2023-01-31T04:00:06.450Z,101015.69
2023-01-31T04:05:21.970Z,101028.69
2023-01-31T04:10:29.326Z,101010.31
2023-01-31T04:15:33.415Z,101006.81
2023-01-31T04:20:36.058Z,101006.94
2023-01-31T04:25:38.758Z,101006.59
2023-01-31T04:30:42.757Z,101006.06
2023-01-31T04:35:45.419Z,101005.84
2023-01-31T04:40:48.646Z,101003.16
2023-01-31T04:45:52.646Z,101002.38
2023-01-31T04:50:55.282Z,100989.91
2023-01-31T04:55:57.963Z,100998.72
2023-01-31T05:01:02.107Z,101006.81
2023-01-31T05:06:05.709Z,100988.75
2023-01-31T05:11:09.491Z,100984.81
2023-01-31T05:16:13.658Z,100986.41
2023-01-31T05:21:16.331Z,100978.97
2023-01-31T05:26:19.230Z,100955.84
2023-01-31T05:31:23.370Z,100945.78
2023-01-31T05:36:26.201Z,100941.00
2023-01-31T05:41:28.921Z,100939.44
2023-01-31T05:46:32.915Z,100942.97
2023-01-31T05:51:35.572Z,100940.28
2023-01-31T05:56:39.072Z,100935.56
2023-01-31T06:01:43.237Z,100933.31
2023-01-31T06:06:45.922Z,100927.34
2023-01-31T06:11:48.558Z,100929.50
2023-01-31T06:16:52.596Z,100927.56
2023-01-31T06:21:55.246Z,100926.66
2023-01-31T06:26:58.272Z,100919.88
2023-01-31T06:32:02.277Z,100916.88
2023-01-31T06:37:04.914Z,100912.88
2023-01-31T06:42:07.966Z,100920.41
2023-01-31T06:47:14.628Z,100922.34
2023-01-31T06:52:17.385Z,100890.78
2023-01-31T06:57:20.109Z,100906.25
2023-01-31T07:02:24.326Z,100911.84
2023-01-31T07:07:27.113Z,100911.63
2023-01-31T07:12:30.273Z,100894.13
2023-01-31T07:17:34.372Z,100898.03
2023-01-31T07:22:37.254Z,100889.41
2023-01-31T07:27:40.010Z,100869.28
2023-01-31T07:32:44.139Z,100866.31
2023-01-31T07:37:47.138Z,100866.78
2023-01-31T07:42:50.266Z,100869.50
2023-01-31T07:47:54.427Z,100856.34
2023-01-31T07:52:58.891Z,100850.47
2023-01-31T07:58:01.641Z,100843.94
2023-01-31T08:03:23.833Z,100820.81
2023-01-31T08:08:26.561Z,100829.03
2023-01-31T08:13:29.744Z,100834.72
2023-01-31T08:18:33.967Z,100835.25
2023-01-31T08:23:38.157Z,100825.72
2023-01-31T08:28:41.589Z,100810.94
2023-01-31T08:33:45.732Z,100780.91
2023-01-31T08:38:49.504Z,100783.47
2023-01-31T08:43:56.806Z,100778.59
2023-01-31T08:49:02.793Z,100772.22
2023-01-31T08:54:05.781Z,100769.66
2023-01-31T08:59:08.594Z,100786.41
2023-01-31T09:04:12.645Z,100797.22
2023-01-31T09:09:15.378Z,100757.84
2023-01-31T09:14:18.188Z,100758.63
2023-01-31T09:19:23.497Z,100741.59
2023-01-31T09:24:26.307Z,100780.34
2023-01-31T09:29:30.047Z,100732.78
2023-01-31T09:34:34.342Z,100743.31
2023-01-31T09:39:37.046Z,100716.06
2023-01-31T09:44:43.051Z,100715.47
2023-01-31T09:49:50.176Z,100717.91
2023-01-31T09:54:52.874Z,100733.34
2023-01-31T10:00:03.989Z,100727.38
2023-01-31T10:05:23.268Z,100737.28
2023-01-31T10:10:38.031Z,100735.38
2023-01-31T10:15:45.375Z,100735.88
2023-01-31T10:20:53.270Z,100710.56
2023-01-31T10:26:00.390Z,100689.03
2023-01-31T10:31:08.530Z,100703.34
2023-01-31T10:36:19.820Z,100696.00
2023-01-31T10:41:32.650Z,100697.66
2023-01-31T10:46:35.433Z,100684.69
2023-01-31T10:51:56.864Z,100691.56
2023-01-31T10:57:00.256Z,100660.81
2023-01-31T11:02:04.661Z,100654.06
2023-01-31T11:07:10.322Z,100649.53
2023-01-31T11:12:13.178Z,100631.06
2023-01-31T11:17:21.689Z,100616.16
2023-01-31T11:22:28.407Z,100593.81
2023-01-31T11:27:38.008Z,100587.72
2023-01-31T11:32:44.549Z,100588.31
2023-01-31T11:37:54.314Z,100611.03
2023-01-31T11:42:58.759Z,100592.66
2023-01-31T11:48:11.971Z,100574.22
2023-01-31T11:53:20.026Z,100581.78
2023-01-31T11:58:25.900Z,100576.75
2023-01-31T12:03:30.193Z,100589.72
2023-01-31T12:08:36.993Z,100564.50
2023-01-31T12:13:50.752Z,100560.66
2023-01-31T12:19:05.541Z,100541.22
2023-01-31T12:24:25.646Z,100518.16
2023-01-31T12:30:01.515Z,100512.13
2023-01-31T12:35:25.362Z,100502.53
2023-01-31T12:40:40.696Z,100515.13
2023-01-31T12:46:09.655Z,100522.13
2023-01-31T12:51:26.638Z,100522.47
2023-01-31T12:56:48.132Z,100525.91
2023-01-31T13:01:56.224Z,100527.41
2023-01-31T13:07:02.213Z,100533.63
2023-01-31T13:12:10.343Z,100538.59
2023-01-31T13:17:18.457Z,100528.84
2023-01-31T13:22:24.990Z,100537.44
2023-01-31T13:27:34.469Z,100510.38
2023-01-31T13:32:42.184Z,100526.59
2023-01-31T13:37:47.145Z,100525.69
2023-01-31T13:42:53.324Z,100518.13
2023-01-31T13:48:03.481Z,100528.09
2023-01-31T13:53:13.460Z,100506.38
2023-01-31T13:58:23.256Z,100506.50
2023-01-31T14:03:27.050Z,100502.34
2023-01-31T14:08:39.903Z,100491.94
2023-01-31T14:13:45.828Z,100495.72
2023-01-31T14:18:48.617Z,100485.22
2023-01-31T14:23:51.478Z,100464.28
2023-01-31T14:28:55.892Z,100475.84
2023-01-31T14:33:58.723Z,100475.44
2023-01-31T14:39:32.014Z,100481.69
2023-01-31T14:44:47.208Z,100469.44
2023-01-31T14:50:14.740Z,100484.56
2023-01-31T14:55:35.490Z,100488.94
2023-01-31T15:00:47.870Z,100485.13
2023-01-31T15:05:54.650Z,100495.34
2023-01-31T15:11:02.015Z,100505.75
2023-01-31T15:16:08.782Z,100494.50
2023-01-31T15:21:12.249Z,100503.72
2023-01-31T15:26:17.948Z,100501.34
2023-01-31T15:31:29.135Z,100507.13
2023-01-31T15:36:34.774Z,100485.63
2023-01-31T15:41:40.084Z,100485.38
2023-01-31T15:46:46.430Z,100461.00
2023-01-31T15:52:03.749Z,100435.09
2023-01-31T15:57:12.629Z,100486.50
2023-01-31T16:02:23.263Z,100501.28
2023-01-31T16:07:31.225Z,100491.03
2023-01-31T16:12:37.330Z,100497.66
2023-01-31T16:17:41.681Z,100509.19
2023-01-31T16:22:57.562Z,100487.88
2023-01-31T16:28:02.379Z,100500.03
2023-01-31T16:33:06.754Z,100500.38
2023-01-31T16:38:21.462Z,100504.44
2023-01-31T16:43:27.444Z,100503.50
2023-01-31T16:48:33.569Z,100496.97
2023-01-31T16:53:40.132Z,100526.28
2023-01-31T16:58:49.180Z,100529.13
2023-01-31T17:04:20.965Z,100532.84
2023-01-31T17:09:24.092Z,100544.13
2023-01-31T17:14:27.075Z,100544.94
2023-01-31T17:19:31.281Z,100528.28
2023-01-31T17:24:34.041Z,100529.28
2023-01-31T17:29:36.863Z,100539.44
2023-01-31T17:34:41.351Z,100540.09
2023-01-31T17:39:44.285Z,100535.47
2023-01-31T17:44:47.139Z,100541.22
2023-01-31T17:49:51.322Z,100533.69
2023-01-31T17:54:54.136Z,100533.25
2023-01-31T17:59:56.882Z,100540.47
2023-01-31T18:05:01.063Z,100546.97
2023-01-31T18:10:04.985Z,100540.88
2023-01-31T18:15:09.032Z,100548.44
2023-01-31T18:20:13.975Z,100550.44
2023-01-31T18:25:17.074Z,100543.31
2023-01-31T18:30:20.195Z,100561.81
2023-01-31T18:35:24.308Z,100547.91
2023-01-31T18:40:27.108Z,100547.75
2023-01-31T18:45:29.935Z,100543.88
2023-01-31T18:50:34.139Z,100547.00
2023-01-31T18:55:36.900Z,100548.09
2023-01-31T19:00:39.687Z,100553.56
2023-01-31T19:05:43.826Z,100545.22
2023-01-31T19:10:46.631Z,100551.91
2023-01-31T19:15:49.416Z,100540.63
2023-01-31T19:20:53.596Z,100560.88
2023-01-31T19:25:56.430Z,100554.44
2023-01-31T19:31:04.849Z,100571.69
2023-01-31T19:36:14.967Z,100552.16
2023-01-31T19:41:20.805Z,100565.47
2023-01-31T19:46:26.033Z,100577.16
2023-01-31T19:51:30.385Z,100585.66
2023-01-31T19:56:33.304Z,100584.47
2023-01-31T20:01:36.704Z,100605.38
2023-01-31T20:06:40.858Z,100619.34
2023-01-31T20:11:43.627Z,100612.88
2023-01-31T20:16:46.458Z,100618.88
2023-01-31T20:21:50.607Z,100625.53
2023-01-31T20:26:53.495Z,100627.09
2023-01-31T20:31:56.381Z,100618.91
2023-01-31T20:37:00.533Z,100615.88
2023-01-31T20:42:03.442Z,100611.69
2023-01-31T20:47:07.256Z,100600.94
2023-01-31T20:52:11.378Z,100597.00
2023-01-31T20:57:14.193Z,100610.75
2023-01-31T21:02:17.019Z,100599.88
2023-01-31T21:07:21.167Z,100604.41
2023-01-31T21:12:23.905Z,100598.66
2023-01-31T21:17:39.172Z,100618.31
2023-01-31T21:22:44.294Z,100609.75
2023-01-31T21:27:49.978Z,100613.59
2023-01-31T21:32:52.766Z,100611.81
2023-01-31T21:37:56.923Z,100606.81
2023-01-31T21:42:59.649Z,100615.84
2023-01-31T21:48:19.906Z,100612.47
2023-01-31T21:53:24.047Z,100607.94
2023-01-31T21:58:26.869Z,100610.56
2023-01-31T22:03:29.660Z,100620.81
2023-01-31T22:08:34.102Z,100598.34
2023-01-31T22:13:37.170Z,100614.13
2023-01-31T22:18:41.173Z,100604.28
2023-01-31T22:23:49.091Z,100612.34
2023-01-31T22:28:54.935Z,100596.16
2023-01-31T22:33:59.936Z,100592.28
2023-01-31T22:39:04.263Z,100589.03
2023-01-31T22:44:07.107Z,100586.06
2023-01-31T22:49:10.016Z,100588.88
2023-01-31T22:54:14.683Z,100584.81
2023-01-31T22:59:17.453Z,100591.97
2023-01-31T23:04:20.369Z,100578.75
2023-01-31T23:09:24.535Z,100575.09
2023-01-31T23:14:27.476Z,100571.69
2023-01-31T23:19:30.301Z,100587.06
2023-01-31T23:24:35.921Z,100585.13
2023-01-31T23:29:38.710Z,100582.34
2023-01-31T23:34:41.483Z,100568.63
2023-01-31T23:39:47.226Z,100568.78
2023-01-31T23:44:50.011Z,100568.94
2023-01-31T23:49:52.865Z,100572.31
2023-01-31T23:54:56.950Z,100559.78
2023-01-31T23:59:59.841Z,100544.13
